sensor_id;sensor_type;location;lat;lon;timestamp;temperature;humidity
23100;DHT22;53791;50.696;4.396;2023-02-21T00:00:56;7.00;99.90
23100;DHT22;53791;50.696;4.396;2023-02-21T00:03:41;7.10;99.90
23100;DHT22;53791;50.696;4.396;2023-02-21T00:06:27;7.10;99.90
23100;DHT22;53791;50.696;4.396;2023-02-21T00:09:12;7.20;99.90
23100;DHT22;53791;50.696;4.396;2023-02-21T00:11:58;7.10;99.90
23100;DHT22;53791;50.696;4.396;2023-02-21T00:14:43;6.90;99.90
23100;DHT22;53791;50.696;4.396;2023-02-21T00:17:28;6.90;99.90
23100;DHT22;53791;50.696;4.396;2023-02-21T00:20:14;7.10;99.90
23100;DHT22;53791;50.696;4.396;2023-02-21T00:22:59;7.10;99.90
23100;DHT22;53791;50.696;4.396;2023-02-21T00:25:45;7.10;99.90
23100;DHT22;53791;50.696;4.396;2023-02-21T00:28:32;7.00;99.90
23100;DHT22;53791;50.696;4.396;2023-02-21T00:31:18;7.00;99.90
23100;DHT22;53791;50.696;4.396;2023-02-21T00:34:04;7.00;99.90
23100;DHT22;53791;50.696;4.396;2023-02-21T00:36:51;7.10;99.90
23100;DHT22;53791;50.696;4.396;2023-02-21T00:39:37;7.00;99.90
23100;DHT22;53791;50.696;4.396;2023-02-21T00:42:22;7.00;99.90
23100;DHT22;53791;50.696;4.396;2023-02-21T00:45:07;7.00;99.90
23100;DHT22;53791;50.696;4.396;2023-02-21T00:47:53;6.80;99.90
23100;DHT22;53791;50.696;4.396;2023-02-21T00:50:40;6.70;99.90
23100;DHT22;53791;50.696;4.396;2023-02-21T00:53:25;6.70;99.90
23100;DHT22;53791;50.696;4.396;2023-02-21T00:56:11;6.70;99.90
23100;DHT22;53791;50.696;4.396;2023-02-21T00:58:56;6.80;99.90
23100;DHT22;53791;50.696;4.396;2023-02-21T01:01:42;6.70;99.90
23100;DHT22;53791;50.696;4.396;2023-02-21T01:04:27;6.80;99.90
23100;DHT22;53791;50.696;4.396;2023-02-21T01:07:13;6.70;99.90
23100;DHT22;53791;50.696;4.396;2023-02-21T01:09:58;6.70;99.90
23100;DHT22;53791;50.696;4.396;2023-02-21T01:12:44;6.80;99.90
23100;DHT22;53791;50.696;4.396;2023-02-21T01:15:29;6.70;99.90
23100;DHT22;53791;50.696;4.396;2023-02-21T01:18:15;6.70;99.90
23100;DHT22;53791;50.696;4.396;2023-02-21T01:21:01;6.90;99.90
23100;DHT22;53791;50.696;4.396;2023-02-21T01:23:46;6.90;99.90
23100;DHT22;53791;50.696;4.396;2023-02-21T01:26:32;6.90;99.90
23100;DHT22;53791;50.696;4.396;2023-02-21T01:29:17;7.10;99.90
23100;DHT22;53791;50.696;4.396;2023-02-21T01:32:02;7.00;99.90
23100;DHT22;53791;50.696;4.396;2023-02-21T01:34:48;6.90;99.90
23100;DHT22;53791;50.696;4.396;2023-02-21T01:37:33;6.90;99.90
23100;DHT22;53791;50.696;4.396;2023-02-21T01:40:19;6.90;99.90
23100;DHT22;53791;50.696;4.396;2023-02-21T01:43:19;6.90;99.90
23100;DHT22;53791;50.696;4.396;2023-02-21T01:46:07;6.90;99.90
23100;DHT22;53791;50.696;4.396;2023-02-21T01:48:54;6.80;99.90
23100;DHT22;53791;50.696;4.396;2023-02-21T01:51:40;6.80;99.90
23100;DHT22;53791;50.696;4.396;2023-02-21T01:54:30;6.80;99.90
23100;DHT22;53791;50.696;4.396;2023-02-21T01:57:15;6.80;99.90
23100;DHT22;53791;50.696;4.396;2023-02-21T02:00:04;6.80;99.90
23100;DHT22;53791;50.696;4.396;2023-02-21T02:03:04;6.90;99.90
23100;DHT22;53791;50.696;4.396;2023-02-21T02:05:58;6.90;99.90
23100;DHT22;53791;50.696;4.396;2023-02-21T02:08:44;6.90;99.90
23100;DHT22;53791;50.696;4.396;2023-02-21T02:12:01;6.90;99.90
23100;DHT22;53791;50.696;4.396;2023-02-21T02:26:53;7.10;99.90
23100;DHT22;53791;50.696;4.396;2023-02-21T02:29:43;7.10;99.90
23100;DHT22;53791;50.696;4.396;2023-02-21T02:32:30;7.20;99.90
23100;DHT22;53791;50.696;4.396;2023-02-21T02:35:12;7.30;99.90
23100;DHT22;53791;50.696;4.396;2023-02-21T02:40:44;7.30;99.90
23100;DHT22;53791;50.696;4.396;2023-02-21T02:43:29;7.30;99.90
23100;DHT22;53791;50.696;4.396;2023-02-21T02:46:04;7.20;99.90
23100;DHT22;53791;50.696;4.396;2023-02-21T02:48:37;7.30;99.90
23100;DHT22;53791;50.696;4.396;2023-02-21T02:51:10;7.30;99.90
23100;DHT22;53791;50.696;4.396;2023-02-21T02:53:38;7.30;99.90
23100;DHT22;53791;50.696;4.396;2023-02-21T02:56:13;7.30;99.90
23100;DHT22;53791;50.696;4.396;2023-02-21T02:58:48;7.20;99.90
23100;DHT22;53791;50.696;4.396;2023-02-21T03:04:26;7.20;99.90
23100;DHT22;53791;50.696;4.396;2023-02-21T03:07:20;7.30;99.90
23100;DHT22;53791;50.696;4.396;2023-02-21T03:15:44;7.20;99.90
23100;DHT22;53791;50.696;4.396;2023-02-21T03:18:16;7.00;99.90
23100;DHT22;53791;50.696;4.396;2023-02-21T03:20:45;7.00;99.90
23100;DHT22;53791;50.696;4.396;2023-02-21T03:23:15;7.20;99.90
23100;DHT22;53791;50.696;4.396;2023-02-21T03:25:45;7.20;99.90
23100;DHT22;53791;50.696;4.396;2023-02-21T03:28:14;7.20;99.90
23100;DHT22;53791;50.696;4.396;2023-02-21T03:30:43;7.20;99.90
23100;DHT22;53791;50.696;4.396;2023-02-21T03:33:11;7.30;99.90
23100;DHT22;53791;50.696;4.396;2023-02-21T03:35:38;7.30;99.90
23100;DHT22;53791;50.696;4.396;2023-02-21T03:38:06;7.40;99.90
23100;DHT22;53791;50.696;4.396;2023-02-21T03:40:34;7.40;99.90
23100;DHT22;53791;50.696;4.396;2023-02-21T03:43:03;7.30;99.90
23100;DHT22;53791;50.696;4.396;2023-02-21T03:45:34;7.30;99.90
23100;DHT22;53791;50.696;4.396;2023-02-21T03:48:02;7.30;99.90
23100;DHT22;53791;50.696;4.396;2023-02-21T03:50:30;7.30;99.90
23100;DHT22;53791;50.696;4.396;2023-02-21T03:52:57;7.30;99.90
23100;DHT22;53791;50.696;4.396;2023-02-21T03:55:25;7.30;99.90
23100;DHT22;53791;50.696;4.396;2023-02-21T03:57:52;7.30;99.90
23100;DHT22;53791;50.696;4.396;2023-02-21T04:00:20;7.20;99.90
23100;DHT22;53791;50.696;4.396;2023-02-21T04:02:47;7.20;99.90
23100;DHT22;53791;50.696;4.396;2023-02-21T04:05:15;7.20;99.90
23100;DHT22;53791;50.696;4.396;2023-02-21T04:07:43;7.20;99.90
23100;DHT22;53791;50.696;4.396;2023-02-21T04:10:10;7.20;99.90
23100;DHT22;53791;50.696;4.396;2023-02-21T04:12:38;7.30;99.90
23100;DHT22;53791;50.696;4.396;2023-02-21T04:15:06;7.30;99.90
23100;DHT22;53791;50.696;4.396;2023-02-21T04:17:33;7.30;99.90
23100;DHT22;53791;50.696;4.396;2023-02-21T04:20:01;7.40;99.90
23100;DHT22;53791;50.696;4.396;2023-02-21T04:22:28;7.30;99.90
23100;DHT22;53791;50.696;4.396;2023-02-21T04:24:56;7.30;99.90
23100;DHT22;53791;50.696;4.396;2023-02-21T04:27:23;7.30;99.90
23100;DHT22;53791;50.696;4.396;2023-02-21T04:29:52;7.20;99.90
23100;DHT22;53791;50.696;4.396;2023-02-21T04:32:19;7.10;99.90
23100;DHT22;53791;50.696;4.396;2023-02-21T04:34:47;7.10;99.90
23100;DHT22;53791;50.696;4.396;2023-02-21T04:37:14;6.90;99.90
23100;DHT22;53791;50.696;4.396;2023-02-21T04:39:43;6.80;99.90
23100;DHT22;53791;50.696;4.396;2023-02-21T04:42:11;6.70;99.90
23100;DHT22;53791;50.696;4.396;2023-02-21T04:44:38;6.70;99.90
23100;DHT22;53791;50.696;4.396;2023-02-21T04:47:06;6.80;99.90
23100;DHT22;53791;50.696;4.396;2023-02-21T04:49:33;6.70;99.90
23100;DHT22;53791;50.696;4.396;2023-02-21T04:52:01;6.70;99.90
23100;DHT22;53791;50.696;4.396;2023-02-21T04:54:28;6.70;99.90
23100;DHT22;53791;50.696;4.396;2023-02-21T04:56:56;6.70;99.90
23100;DHT22;53791;50.696;4.396;2023-02-21T04:59:23;6.70;99.90
23100;DHT22;53791;50.696;4.396;2023-02-21T05:01:51;6.70;99.90
23100;DHT22;53791;50.696;4.396;2023-02-21T05:04:18;6.70;99.90
23100;DHT22;53791;50.696;4.396;2023-02-21T05:06:46;6.70;99.90
23100;DHT22;53791;50.696;4.396;2023-02-21T05:09:13;6.70;99.90
23100;DHT22;53791;50.696;4.396;2023-02-21T05:11:41;6.60;99.90
23100;DHT22;53791;50.696;4.396;2023-02-21T05:14:08;6.50;99.90
23100;DHT22;53791;50.696;4.396;2023-02-21T05:16:36;6.60;99.90
23100;DHT22;53791;50.696;4.396;2023-02-21T05:19:03;6.60;99.90
23100;DHT22;53791;50.696;4.396;2023-02-21T05:21:33;6.70;99.90
23100;DHT22;53791;50.696;4.396;2023-02-21T05:24:08;6.60;99.90
23100;DHT22;53791;50.696;4.396;2023-02-21T05:26:36;6.70;99.90
23100;DHT22;53791;50.696;4.396;2023-02-21T05:29:04;6.70;99.90
23100;DHT22;53791;50.696;4.396;2023-02-21T05:31:32;6.80;99.90
23100;DHT22;53791;50.696;4.396;2023-02-21T05:33:59;6.70;99.90
23100;DHT22;53791;50.696;4.396;2023-02-21T05:36:27;6.60;99.90
23100;DHT22;53791;50.696;4.396;2023-02-21T05:38:55;6.70;99.90
23100;DHT22;53791;50.696;4.396;2023-02-21T05:41:22;6.60;99.90
23100;DHT22;53791;50.696;4.396;2023-02-21T05:43:51;6.40;99.90
23100;DHT22;53791;50.696;4.396;2023-02-21T05:46:34;6.40;99.90
23100;DHT22;53791;50.696;4.396;2023-02-21T05:49:00;6.40;99.90
23100;DHT22;53791;50.696;4.396;2023-02-21T05:51:36;6.30;99.90
23100;DHT22;53791;50.696;4.396;2023-02-21T05:54:06;6.40;99.90
23100;DHT22;53791;50.696;4.396;2023-02-21T05:56:38;6.50;99.90
23100;DHT22;53791;50.696;4.396;2023-02-21T05:59:06;6.50;99.90
23100;DHT22;53791;50.696;4.396;2023-02-21T06:01:34;6.50;99.90
23100;DHT22;53791;50.696;4.396;2023-02-21T06:04:02;6.40;99.90
23100;DHT22;53791;50.696;4.396;2023-02-21T06:06:30;6.40;99.90
23100;DHT22;53791;50.696;4.396;2023-02-21T06:08:58;6.50;99.90
23100;DHT22;53791;50.696;4.396;2023-02-21T06:11:28;6.40;99.90
23100;DHT22;53791;50.696;4.396;2023-02-21T06:13:58;6.50;99.90
23100;DHT22;53791;50.696;4.396;2023-02-21T06:16:26;6.50;99.90
23100;DHT22;53791;50.696;4.396;2023-02-21T06:18:55;6.40;99.90
23100;DHT22;53791;50.696;4.396;2023-02-21T06:21:23;6.40;99.90
23100;DHT22;53791;50.696;4.396;2023-02-21T06:23:51;6.30;99.90
23100;DHT22;53791;50.696;4.396;2023-02-21T06:26:19;6.30;99.90
23100;DHT22;53791;50.696;4.396;2023-02-21T06:28:47;6.30;99.90
23100;DHT22;53791;50.696;4.396;2023-02-21T06:31:15;6.30;99.90
23100;DHT22;53791;50.696;4.396;2023-02-21T06:33:43;6.30;99.90
23100;DHT22;53791;50.696;4.396;2023-02-21T06:36:13;6.20;99.90
23100;DHT22;53791;50.696;4.396;2023-02-21T06:38:44;6.10;99.90
23100;DHT22;53791;50.696;4.396;2023-02-21T06:41:16;6.20;99.90
23100;DHT22;53791;50.696;4.396;2023-02-21T06:43:44;6.20;99.90
23100;DHT22;53791;50.696;4.396;2023-02-21T06:46:17;6.20;99.90
23100;DHT22;53791;50.696;4.396;2023-02-21T06:48:44;6.20;99.90
23100;DHT22;53791;50.696;4.396;2023-02-21T06:51:12;6.30;99.90
23100;DHT22;53791;50.696;4.396;2023-02-21T06:53:41;6.30;99.90
23100;DHT22;53791;50.696;4.396;2023-02-21T06:56:09;6.30;99.90
23100;DHT22;53791;50.696;4.396;2023-02-21T06:58:36;6.40;99.90
23100;DHT22;53791;50.696;4.396;2023-02-21T07:01:04;6.30;99.90
23100;DHT22;53791;50.696;4.396;2023-02-21T07:03:33;6.30;99.90
23100;DHT22;53791;50.696;4.396;2023-02-21T07:06:00;6.20;99.90
23100;DHT22;53791;50.696;4.396;2023-02-21T07:08:28;6.20;99.90
23100;DHT22;53791;50.696;4.396;2023-02-21T07:10:56;6.20;99.90
23100;DHT22;53791;50.696;4.396;2023-02-21T07:13:23;6.20;99.90
23100;DHT22;53791;50.696;4.396;2023-02-21T07:15:51;6.30;99.90
23100;DHT22;53791;50.696;4.396;2023-02-21T07:18:20;6.30;99.90
23100;DHT22;53791;50.696;4.396;2023-02-21T07:20:47;6.40;99.90
23100;DHT22;53791;50.696;4.396;2023-02-21T07:23:17;6.30;99.90
23100;DHT22;53791;50.696;4.396;2023-02-21T07:25:44;6.30;99.90
23100;DHT22;53791;50.696;4.396;2023-02-21T07:28:12;6.30;99.90
23100;DHT22;53791;50.696;4.396;2023-02-21T07:30:39;6.30;99.90
23100;DHT22;53791;50.696;4.396;2023-02-21T07:33:07;6.30;99.90
23100;DHT22;53791;50.696;4.396;2023-02-21T07:35:34;6.30;99.90
23100;DHT22;53791;50.696;4.396;2023-02-21T07:38:02;6.40;99.90
23100;DHT22;53791;50.696;4.396;2023-02-21T07:40:29;6.40;99.90
23100;DHT22;53791;50.696;4.396;2023-02-21T07:42:57;6.50;99.90
23100;DHT22;53791;50.696;4.396;2023-02-21T07:45:25;6.60;99.90
23100;DHT22;53791;50.696;4.396;2023-02-21T07:47:52;6.60;99.90
23100;DHT22;53791;50.696;4.396;2023-02-21T07:50:19;6.70;99.90
23100;DHT22;53791;50.696;4.396;2023-02-21T07:52:49;6.60;99.90
23100;DHT22;53791;50.696;4.396;2023-02-21T07:55:16;6.60;99.90
23100;DHT22;53791;50.696;4.396;2023-02-21T07:57:44;6.70;99.90
23100;DHT22;53791;50.696;4.396;2023-02-21T08:00:13;6.70;99.90
23100;DHT22;53791;50.696;4.396;2023-02-21T08:02:41;6.50;99.90
23100;DHT22;53791;50.696;4.396;2023-02-21T08:05:11;6.60;99.90
23100;DHT22;53791;50.696;4.396;2023-02-21T08:07:39;6.50;99.90
23100;DHT22;53791;50.696;4.396;2023-02-21T08:10:07;6.50;99.90
23100;DHT22;53791;50.696;4.396;2023-02-21T08:12:34;6.50;99.90
23100;DHT22;53791;50.696;4.396;2023-02-21T08:15:02;6.50;99.90
23100;DHT22;53791;50.696;4.396;2023-02-21T08:17:31;6.60;99.90
23100;DHT22;53791;50.696;4.396;2023-02-21T08:19:59;6.50;99.90
23100;DHT22;53791;50.696;4.396;2023-02-21T08:22:26;6.50;99.90
23100;DHT22;53791;50.696;4.396;2023-02-21T08:24:55;6.60;99.90
23100;DHT22;53791;50.696;4.396;2023-02-21T08:27:23;6.60;99.90
23100;DHT22;53791;50.696;4.396;2023-02-21T08:29:51;6.70;99.90
23100;DHT22;53791;50.696;4.396;2023-02-21T08:32:19;6.60;99.90
23100;DHT22;53791;50.696;4.396;2023-02-21T08:34:47;6.80;99.90
23100;DHT22;53791;50.696;4.396;2023-02-21T08:37:16;6.80;99.90
23100;DHT22;53791;50.696;4.396;2023-02-21T08:39:46;7.00;99.90
23100;DHT22;53791;50.696;4.396;2023-02-21T08:42:14;7.00;99.90
23100;DHT22;53791;50.696;4.396;2023-02-21T08:44:45;7.10;99.90
23100;DHT22;53791;50.696;4.396;2023-02-21T08:47:14;7.10;99.90
23100;DHT22;53791;50.696;4.396;2023-02-21T08:49:46;6.90;99.90
23100;DHT22;53791;50.696;4.396;2023-02-21T08:52:15;6.90;99.90
23100;DHT22;53791;50.696;4.396;2023-02-21T08:54:44;7.00;99.90
23100;DHT22;53791;50.696;4.396;2023-02-21T08:57:12;7.00;99.90
23100;DHT22;53791;50.696;4.396;2023-02-21T08:59:40;7.00;99.90
23100;DHT22;53791;50.696;4.396;2023-02-21T09:02:19;6.90;99.90
23100;DHT22;53791;50.696;4.396;2023-02-21T09:04:47;6.70;99.90
23100;DHT22;53791;50.696;4.396;2023-02-21T09:07:17;6.50;99.90
23100;DHT22;53791;50.696;4.396;2023-02-21T09:09:44;6.50;99.90
23100;DHT22;53791;50.696;4.396;2023-02-21T09:12:12;6.50;99.90
23100;DHT22;53791;50.696;4.396;2023-02-21T09:14:41;6.60;99.90
23100;DHT22;53791;50.696;4.396;2023-02-21T09:17:11;6.70;99.90
23100;DHT22;53791;50.696;4.396;2023-02-21T09:19:40;6.80;99.90
23100;DHT22;53791;50.696;4.396;2023-02-21T09:22:09;6.90;99.90
23100;DHT22;53791;50.696;4.396;2023-02-21T09:24:37;6.90;99.90
23100;DHT22;53791;50.696;4.396;2023-02-21T09:27:05;7.00;99.90
23100;DHT22;53791;50.696;4.396;2023-02-21T09:29:34;7.00;99.90
23100;DHT22;53791;50.696;4.396;2023-02-21T09:32:02;7.10;99.90
23100;DHT22;53791;50.696;4.396;2023-02-21T09:34:50;7.10;99.90
23100;DHT22;53791;50.696;4.396;2023-02-21T09:37:18;7.30;99.90
23100;DHT22;53791;50.696;4.396;2023-02-21T09:39:45;7.40;99.90
23100;DHT22;53791;50.696;4.396;2023-02-21T09:42:27;7.40;99.90
23100;DHT22;53791;50.696;4.396;2023-02-21T09:44:44;7.20;99.90
23100;DHT22;53791;50.696;4.396;2023-02-21T09:47:20;7.20;99.90
23100;DHT22;53791;50.696;4.396;2023-02-21T09:49:47;7.30;99.90
23100;DHT22;53791;50.696;4.396;2023-02-21T09:52:37;7.30;99.90
23100;DHT22;53791;50.696;4.396;2023-02-21T09:55:29;7.40;99.90
23100;DHT22;53791;50.696;4.396;2023-02-21T09:57:53;7.50;99.90
23100;DHT22;53791;50.696;4.396;2023-02-21T10:00:23;7.60;99.90
23100;DHT22;53791;50.696;4.396;2023-02-21T10:05:46;7.60;99.90
23100;DHT22;53791;50.696;4.396;2023-02-21T10:08:22;7.60;99.90
23100;DHT22;53791;50.696;4.396;2023-02-21T10:10:53;7.50;99.90
23100;DHT22;53791;50.696;4.396;2023-02-21T10:13:45;7.50;99.90
23100;DHT22;53791;50.696;4.396;2023-02-21T10:16:16;7.60;99.90
23100;DHT22;53791;50.696;4.396;2023-02-21T10:18:46;7.80;99.90
23100;DHT22;53791;50.696;4.396;2023-02-21T10:21:24;8.00;99.90
23100;DHT22;53791;50.696;4.396;2023-02-21T10:23:54;7.70;99.90
23100;DHT22;53791;50.696;4.396;2023-02-21T10:26:25;7.70;99.90
23100;DHT22;53791;50.696;4.396;2023-02-21T10:28:54;7.70;99.90
23100;DHT22;53791;50.696;4.396;2023-02-21T10:31:36;7.70;99.90
23100;DHT22;53791;50.696;4.396;2023-02-21T10:34:06;7.80;99.90
23100;DHT22;53791;50.696;4.396;2023-02-21T10:36:34;7.90;99.90
23100;DHT22;53791;50.696;4.396;2023-02-21T10:39:14;8.00;99.90
23100;DHT22;53791;50.696;4.396;2023-02-21T10:41:41;8.10;99.90
23100;DHT22;53791;50.696;4.396;2023-02-21T10:44:21;8.10;99.90
23100;DHT22;53791;50.696;4.396;2023-02-21T10:46:57;8.30;99.90
23100;DHT22;53791;50.696;4.396;2023-02-21T10:49:28;8.30;99.90
23100;DHT22;53791;50.696;4.396;2023-02-21T10:54:38;8.20;99.90
23100;DHT22;53791;50.696;4.396;2023-02-21T10:57:09;8.30;99.90
23100;DHT22;53791;50.696;4.396;2023-02-21T10:59:39;8.40;99.90
23100;DHT22;53791;50.696;4.396;2023-02-21T11:02:28;8.50;99.90
23100;DHT22;53791;50.696;4.396;2023-02-21T11:05:07;8.50;99.90
23100;DHT22;53791;50.696;4.396;2023-02-21T11:07:35;8.40;99.90
23100;DHT22;53791;50.696;4.396;2023-02-21T11:10:24;8.50;99.90
23100;DHT22;53791;50.696;4.396;2023-02-21T11:12:36;8.60;99.90
23100;DHT22;53791;50.696;4.396;2023-02-21T11:15:15;8.50;99.90
23100;DHT22;53791;50.696;4.396;2023-02-21T11:17:43;8.50;99.90
23100;DHT22;53791;50.696;4.396;2023-02-21T11:20:19;8.60;99.90
23100;DHT22;53791;50.696;4.396;2023-02-21T11:22:49;8.50;99.90
23100;DHT22;53791;50.696;4.396;2023-02-21T11:25:28;8.40;99.90
23100;DHT22;53791;50.696;4.396;2023-02-21T11:30:36;8.30;99.90
23100;DHT22;53791;50.696;4.396;2023-02-21T11:33:05;8.40;99.90
23100;DHT22;53791;50.696;4.396;2023-02-21T11:35:45;8.60;99.90
23100;DHT22;53791;50.696;4.396;2023-02-21T11:38:07;8.70;99.90
23100;DHT22;53791;50.696;4.396;2023-02-21T11:40:44;8.70;99.90
23100;DHT22;53791;50.696;4.396;2023-02-21T11:43:19;8.60;99.90
23100;DHT22;53791;50.696;4.396;2023-02-21T11:46:09;8.60;99.90
23100;DHT22;53791;50.696;4.396;2023-02-21T11:48:41;8.30;99.90
23100;DHT22;53791;50.696;4.396;2023-02-21T11:51:16;8.30;99.90
23100;DHT22;53791;50.696;4.396;2023-02-21T11:53:42;8.30;99.90
23100;DHT22;53791;50.696;4.396;2023-02-21T11:56:33;8.50;99.90
23100;DHT22;53791;50.696;4.396;2023-02-21T12:01:58;8.60;99.90
23100;DHT22;53791;50.696;4.396;2023-02-21T12:07:32;8.60;99.90
23100;DHT22;53791;50.696;4.396;2023-02-21T12:09:55;8.40;99.90
23100;DHT22;53791;50.696;4.396;2023-02-21T12:15:23;8.50;99.90
23100;DHT22;53791;50.696;4.396;2023-02-21T12:18:16;8.60;99.90
23100;DHT22;53791;50.696;4.396;2023-02-21T12:21:04;8.60;99.90
23100;DHT22;53791;50.696;4.396;2023-02-21T12:23:50;8.80;99.90
23100;DHT22;53791;50.696;4.396;2023-02-21T12:26:26;8.70;99.90
23100;DHT22;53791;50.696;4.396;2023-02-21T12:29:06;8.80;99.90
23100;DHT22;53791;50.696;4.396;2023-02-21T12:31:35;8.80;99.90
23100;DHT22;53791;50.696;4.396;2023-02-21T12:34:09;9.00;99.90
23100;DHT22;53791;50.696;4.396;2023-02-21T12:36:53;8.90;99.90
23100;DHT22;53791;50.696;4.396;2023-02-21T12:39:22;8.80;99.90
23100;DHT22;53791;50.696;4.396;2023-02-21T12:42:11;8.80;99.90
23100;DHT22;53791;50.696;4.396;2023-02-21T12:47:14;8.80;99.90
23100;DHT22;53791;50.696;4.396;2023-02-21T12:49:48;8.80;99.90
23100;DHT22;53791;50.696;4.396;2023-02-21T12:52:16;8.80;99.90
23100;DHT22;53791;50.696;4.396;2023-02-21T12:55:00;8.80;99.90
23100;DHT22;53791;50.696;4.396;2023-02-21T12:57:59;8.80;99.90
23100;DHT22;53791;50.696;4.396;2023-02-21T13:06:01;8.90;99.90
23100;DHT22;53791;50.696;4.396;2023-02-21T13:11:54;8.90;99.90
23100;DHT22;53791;50.696;4.396;2023-02-21T13:14:23;9.00;99.90
23100;DHT22;53791;50.696;4.396;2023-02-21T13:16:51;9.00;99.90
23100;DHT22;53791;50.696;4.396;2023-02-21T13:19:20;8.70;99.90
23100;DHT22;53791;50.696;4.396;2023-02-21T13:21:55;8.50;99.90
23100;DHT22;53791;50.696;4.396;2023-02-21T13:29:33;8.50;99.90
23100;DHT22;53791;50.696;4.396;2023-02-21T13:32:18;8.50;99.90
23100;DHT22;53791;50.696;4.396;2023-02-21T13:34:58;8.40;99.90
23100;DHT22;53791;50.696;4.396;2023-02-21T13:37:24;8.60;99.90
23100;DHT22;53791;50.696;4.396;2023-02-21T13:39:55;8.60;99.90
23100;DHT22;53791;50.696;4.396;2023-02-21T13:42:26;8.60;99.90
23100;DHT22;53791;50.696;4.396;2023-02-21T13:45:17;8.70;99.90
23100;DHT22;53791;50.696;4.396;2023-02-21T13:50:43;9.00;99.90
23100;DHT22;53791;50.696;4.396;2023-02-21T13:53:20;9.10;99.90
23100;DHT22;53791;50.696;4.396;2023-02-21T13:55:39;9.10;99.90
23100;DHT22;53791;50.696;4.396;2023-02-21T14:00:44;9.30;99.90
23100;DHT22;53791;50.696;4.396;2023-02-21T14:08:34;9.30;99.90
23100;DHT22;53791;50.696;4.396;2023-02-21T14:11:00;9.00;99.90
23100;DHT22;53791;50.696;4.396;2023-02-21T14:13:37;9.10;99.90
23100;DHT22;53791;50.696;4.396;2023-02-21T14:19:05;9.30;99.90
23100;DHT22;53791;50.696;4.396;2023-02-21T14:21:42;9.30;99.90
23100;DHT22;53791;50.696;4.396;2023-02-21T14:24:12;9.30;99.90
23100;DHT22;53791;50.696;4.396;2023-02-21T14:26:43;9.30;99.90
23100;DHT22;53791;50.696;4.396;2023-02-21T14:34:52;9.40;99.90
23100;DHT22;53791;50.696;4.396;2023-02-21T14:37:32;9.70;99.90
23100;DHT22;53791;50.696;4.396;2023-02-21T14:40:00;9.80;99.90
23100;DHT22;53791;50.696;4.396;2023-02-21T14:45:18;9.60;99.90
23100;DHT22;53791;50.696;4.396;2023-02-21T15:10:22;10.20;99.90
23100;DHT22;53791;50.696;4.396;2023-02-21T15:12:49;10.20;99.90
23100;DHT22;53791;50.696;4.396;2023-02-21T15:15:26;10.30;99.90
23100;DHT22;53791;50.696;4.396;2023-02-21T15:18:02;10.10;99.90
23100;DHT22;53791;50.696;4.396;2023-02-21T15:20:30;10.10;99.90
23100;DHT22;53791;50.696;4.396;2023-02-21T15:23:19;10.00;99.90
23100;DHT22;53791;50.696;4.396;2023-02-21T15:25:43;10.00;99.90
23100;DHT22;53791;50.696;4.396;2023-02-21T15:28:26;10.00;99.90
23100;DHT22;53791;50.696;4.396;2023-02-21T15:31:00;10.10;99.90
23100;DHT22;53791;50.696;4.396;2023-02-21T15:33:31;10.10;99.90
23100;DHT22;53791;50.696;4.396;2023-02-21T15:36:00;10.20;99.90
23100;DHT22;53791;50.696;4.396;2023-02-21T15:38:43;10.30;99.90
23100;DHT22;53791;50.696;4.396;2023-02-21T15:41:30;10.30;99.90
23100;DHT22;53791;50.696;4.396;2023-02-21T15:43:48;10.30;99.90
23100;DHT22;53791;50.696;4.396;2023-02-21T15:46:21;10.00;99.90
23100;DHT22;53791;50.696;4.396;2023-02-21T15:48:49;10.10;99.90
23100;DHT22;53791;50.696;4.396;2023-02-21T15:51:17;10.00;99.90
23100;DHT22;53791;50.696;4.396;2023-02-21T15:56:31;9.80;99.90
23100;DHT22;53791;50.696;4.396;2023-02-21T15:59:10;9.60;99.90
23100;DHT22;53791;50.696;4.396;2023-02-21T16:01:38;9.50;99.90
23100;DHT22;53791;50.696;4.396;2023-02-21T16:04:20;9.50;99.90
23100;DHT22;53791;50.696;4.396;2023-02-21T16:06:53;9.60;99.90
23100;DHT22;53791;50.696;4.396;2023-02-21T16:09:26;9.50;99.90
23100;DHT22;53791;50.696;4.396;2023-02-21T16:12:25;9.60;99.90
23100;DHT22;53791;50.696;4.396;2023-02-21T16:17:19;9.60;99.90
23100;DHT22;53791;50.696;4.396;2023-02-21T16:19:53;9.60;99.90
23100;DHT22;53791;50.696;4.396;2023-02-21T16:22:30;9.60;99.90
23100;DHT22;53791;50.696;4.396;2023-02-21T16:25:17;9.60;99.90
23100;DHT22;53791;50.696;4.396;2023-02-21T16:27:50;9.60;99.90
23100;DHT22;53791;50.696;4.396;2023-02-21T16:30:26;9.60;99.90
23100;DHT22;53791;50.696;4.396;2023-02-21T16:32:59;9.50;99.90
23100;DHT22;53791;50.696;4.396;2023-02-21T16:35:27;9.50;99.90
23100;DHT22;53791;50.696;4.396;2023-02-21T16:37:57;9.40;99.90
23100;DHT22;53791;50.696;4.396;2023-02-21T16:40:32;9.40;99.90
23100;DHT22;53791;50.696;4.396;2023-02-21T16:43:01;9.30;99.90
23100;DHT22;53791;50.696;4.396;2023-02-21T16:45:30;9.30;99.90
23100;DHT22;53791;50.696;4.396;2023-02-21T16:48:00;9.00;99.90
23100;DHT22;53791;50.696;4.396;2023-02-21T16:50:34;8.80;99.90
23100;DHT22;53791;50.696;4.396;2023-02-21T16:53:00;8.60;99.90
23100;DHT22;53791;50.696;4.396;2023-02-21T16:55:28;8.40;99.90
23100;DHT22;53791;50.696;4.396;2023-02-21T16:57:58;8.50;99.90
23100;DHT22;53791;50.696;4.396;2023-02-21T17:00:26;8.30;99.90
23100;DHT22;53791;50.696;4.396;2023-02-21T17:02:55;8.20;99.90
23100;DHT22;53791;50.696;4.396;2023-02-21T17:05:23;8.10;99.90
23100;DHT22;53791;50.696;4.396;2023-02-21T17:07:54;8.10;99.90
23100;DHT22;53791;50.696;4.396;2023-02-21T17:10:23;8.10;99.90
23100;DHT22;53791;50.696;4.396;2023-02-21T17:12:51;8.10;99.90
23100;DHT22;53791;50.696;4.396;2023-02-21T17:15:18;8.00;99.90
23100;DHT22;53791;50.696;4.396;2023-02-21T17:17:47;8.00;99.90
23100;DHT22;53791;50.696;4.396;2023-02-21T17:20:16;7.90;99.90
23100;DHT22;53791;50.696;4.396;2023-02-21T17:22:44;7.90;99.90
23100;DHT22;53791;50.696;4.396;2023-02-21T17:25:12;7.90;99.90
23100;DHT22;53791;50.696;4.396;2023-02-21T17:27:40;7.60;99.90
23100;DHT22;53791;50.696;4.396;2023-02-21T17:30:09;7.50;99.90
23100;DHT22;53791;50.696;4.396;2023-02-21T17:32:37;7.50;99.90
23100;DHT22;53791;50.696;4.396;2023-02-21T17:35:05;7.40;99.90
23100;DHT22;53791;50.696;4.396;2023-02-21T17:37:33;7.30;99.90
23100;DHT22;53791;50.696;4.396;2023-02-21T17:40:00;7.30;99.90
23100;DHT22;53791;50.696;4.396;2023-02-21T17:42:28;7.30;99.90
23100;DHT22;53791;50.696;4.396;2023-02-21T17:44:55;7.30;99.90
23100;DHT22;53791;50.696;4.396;2023-02-21T17:47:24;7.20;99.90
23100;DHT22;53791;50.696;4.396;2023-02-21T17:49:51;7.10;99.90
23100;DHT22;53791;50.696;4.396;2023-02-21T17:52:21;7.20;99.90
23100;DHT22;53791;50.696;4.396;2023-02-21T17:54:48;7.20;99.90
23100;DHT22;53791;50.696;4.396;2023-02-21T17:57:16;7.10;99.90
23100;DHT22;53791;50.696;4.396;2023-02-21T17:59:43;6.90;99.90
23100;DHT22;53791;50.696;4.396;2023-02-21T18:02:12;6.90;99.90
23100;DHT22;53791;50.696;4.396;2023-02-21T18:04:41;6.70;99.90
23100;DHT22;53791;50.696;4.396;2023-02-21T18:07:09;6.70;99.90
23100;DHT22;53791;50.696;4.396;2023-02-21T18:09:37;6.70;99.90